Time,TemperatureF,DewpointF,PressureIn,WindDirection,WindDirectionDegrees,WindSpeedMPH,WindSpeedGustMPH,Humidity,HourlyPrecipIn,Conditions,Clouds,dailyrainin,SoftwareType,DateUTC
2013-01-06 00:01:00,49.0,49.0,30.26,NNW,342,0.6,5.7,100,0.00,RA,,0.00,WeatherDisplay:10.37,2013-01-06 06:01:00,
2013-01-06 00:06:00,49.0,49.0,30.26,NW,313,5.1,8.1,100,0.00,RA,,0.00,WeatherDisplay:10.37,2013-01-06 06:06:00,
2013-01-06 00:11:00,49.0,49.0,30.26,NW,318,4.4,6.9,100,0.00,CLR,,0.00,WeatherDisplay:10.37,2013-01-06 06:11:00,
2013-01-06 00:16:00,49.0,49.0,30.26,WNW,288,0.4,5.8,100,0.00,CLR,,0.00,WeatherDisplay:10.37,2013-01-06 06:16:00,
2013-01-06 00:21:00,48.9,48.9,30.26,NW,319,4.5,6.9,100,0.00,CLR,,0.00,WeatherDisplay:10.37,2013-01-06 06:21:00,
2013-01-06 00:26:00,49.0,49.0,30.26,North,353,3.8,5.8,100,0.00,CLR,,0.00,WeatherDisplay:10.37,2013-01-06 06:26:00,
2013-01-06 00:31:00,49.1,49.1,30.26,NNW,328,5.3,6.9,100,0.00,CLR,,0.00,WeatherDisplay:10.37,2013-01-06 06:31:00,
2013-01-06 00:36:00,49.0,49.0,30.26,NW,315,1.7,4.6,100,0.00,CLR,,0.00,WeatherDisplay:10.37,2013-01-06 06:36:00,
2013-01-06 00:41:00,48.9,48.9,30.26,NNW,343,5.1,6.9,100,0.00,CLR,,0.00,WeatherDisplay:10.37,2013-01-06 06:41:00,
2013-01-06 00:46:00,49.1,49.1,30.26,NW,326,2.0,4.6,100,0.00,CLR,,0.00,WeatherDisplay:10.37,2013-01-06 06:46:00,
2013-01-06 00:51:00,49.1,49.1,30.25,NNW,340,3.9,6.9,100,0.00,CLR,,0.00,WeatherDisplay:10.37,2013-01-06 06:51:00,
2013-01-06 00:56:00,49.0,49.0,30.25,NW,323,6.1,8.1,100,0.00,CLR,,0.00,WeatherDisplay:10.37,2013-01-06 06:56:00,
2013-01-06 01:01:00,49.0,49.0,30.25,NW,305,5.1,8.1,100,0.00,CLR,,0.00,WeatherDisplay:10.37,2013-01-06 07:01:00,
2013-01-06 01:06:00,49.0,49.0,30.25,NNW,328,0.6,4.6,100,0.00,CLR,,0.00,WeatherDisplay:10.37,2013-01-06 07:06:00,
2013-01-06 01:11:00,49.1,49.1,30.25,WNW,299,2.4,8.1,100,0.00,CLR,,0.00,WeatherDisplay:10.37,2013-01-06 07:11:00,
2013-01-06 01:16:00,49.2,49.2,30.25,NW,306,4.7,5.8,100,0.00,CLR,,0.00,WeatherDisplay:10.37,2013-01-06 07:16:00,
2013-01-06 01:21:00,49.1,49.1,30.25,NNW,340,3.6,5.8,100,0.00,CLR,,0.00,WeatherDisplay:10.37,2013-01-06 07:21:00,
2013-01-06 01:26:00,49.1,49.1,30.25,NW,326,0.4,3.8,100,0.00,CLR,,0.00,WeatherDisplay:10.37,2013-01-06 07:26:00,
2013-01-06 01:31:00,49.1,49.1,30.26,NW,326,0.9,6.9,100,0.00,CLR,,0.00,WeatherDisplay:10.37,2013-01-06 07:31:00,
2013-01-06 01:36:00,49.0,49.0,30.26,NNW,333,4.3,6.7,100,0.00,CLR,,0.00,WeatherDisplay:10.37,2013-01-06 07:36:00,
2013-01-06 01:41:00,49.0,49.0,30.26,West,274,1.9,5.8,100,0.00,CLR,,0.00,WeatherDisplay:10.37,2013-01-06 07:41:00,
2013-01-06 01:46:00,48.9,48.9,30.26,NW,312,4.3,6.9,100,0.00,CLR,,0.00,WeatherDisplay:10.37,2013-01-06 07:46:00,
2013-01-06 01:51:00,48.9,48.9,30.26,WNW,295,5.2,6.9,100,0.00,CLR,,0.00,WeatherDisplay:10.37,2013-01-06 07:51:00,
2013-01-06 01:56:00,48.7,48.7,30.26,NNW,333,3.7,6.9,100,0.00,CLR,,0.00,WeatherDisplay:10.37,2013-01-06 07:56:00,
2013-01-06 02:01:00,48.7,48.7,30.26,NW,304,4.8,8.1,100,0.00,CLR,,0.00,WeatherDisplay:10.37,2013-01-06 08:01:00,
2013-01-06 02:06:00,48.6,48.6,30.26,NW,325,5.0,6.9,100,0.00,CLR,,0.00,WeatherDisplay:10.37,2013-01-06 08:06:00,
2013-01-06 02:11:00,48.5,48.5,30.26,WNW,288,0.2,1.1,100,0.00,CLR,,0.00,WeatherDisplay:10.37,2013-01-06 08:11:00,
2013-01-06 02:16:00,48.4,48.4,30.26,North,354,0.6,3.5,100,0.00,CLR,,0.00,WeatherDisplay:10.37,2013-01-06 08:16:00,
2013-01-06 02:21:00,48.2,48.2,30.26,NW,319,2.6,6.9,100,0.00,CLR,,0.00,WeatherDisplay:10.37,2013-01-06 08:21:00,
2013-01-06 02:26:00,48.0,48.0,30.26,NW,322,3.8,4.6,100,0.00,CLR,,0.00,WeatherDisplay:10.37,2013-01-06 08:26:00,
2013-01-06 02:31:00,47.7,47.7,30.26,WNW,299,1.6,4.6,100,0.00,CLR,,0.00,WeatherDisplay:10.37,2013-01-06 08:31:00,
2013-01-06 02:36:00,47.6,47.6,30.26,NW,312,3.1,6.9,100,0.00,CLR,,0.00,WeatherDisplay:10.37,2013-01-06 08:36:00,
2013-01-06 02:41:00,47.5,47.5,30.26,NNW,328,1.7,4.6,100,0.00,CLR,,0.00,WeatherDisplay:10.37,2013-01-06 08:41:00,
2013-01-06 02:46:00,47.3,47.3,30.26,NNW,340,0.8,6.4,100,0.00,CLR,,0.00,WeatherDisplay:10.37,2013-01-06 08:46:00,
2013-01-06 02:51:00,47.0,47.0,30.26,NNW,328,0.0,2.3,100,0.00,CLR,,0.00,WeatherDisplay:10.37,2013-01-06 08:51:00,
2013-01-06 02:56:00,46.8,46.8,30.26,NW,305,3.0,6.9,100,0.00,CLR,,0.00,WeatherDisplay:10.37,2013-01-06 08:56:00,
2013-01-06 03:01:00,46.7,46.7,30.26,North,357,0.2,4.6,100,0.00,CLR,,0.00,WeatherDisplay:10.37,2013-01-06 09:01:00,
2013-01-06 03:06:00,46.6,46.6,30.26,NNW,337,0.0,5.8,100,0.00,CLR,,0.00,WeatherDisplay:10.37,2013-01-06 09:06:00,
2013-01-06 03:11:00,46.7,46.7,30.25,WNW,285,0.0,0.0,100,0.00,CLR,,0.00,WeatherDisplay:10.37,2013-01-06 09:11:00,
2013-01-06 03:16:00,46.6,46.6,30.26,NW,325,3.5,5.6,100,0.00,CLR,,0.00,WeatherDisplay:10.37,2013-01-06 09:16:00,
2013-01-06 03:21:00,46.4,46.4,30.26,NNW,335,2.1,5.2,100,0.00,,,0.00,WeatherDisplay:10.37,2013-01-06 09:21:00,
2013-01-06 03:26:00,46.4,46.4,30.26,NNW,340,0.0,0.0,100,0.00,,,0.00,WeatherDisplay:10.37,2013-01-06 09:26:00,
2013-01-06 03:31:00,46.3,46.3,30.26,WNW,301,0.7,4.9,100,0.00,,,0.00,WeatherDisplay:10.37,2013-01-06 09:31:00,
2013-01-06 03:36:00,46.2,46.2,30.26,NW,315,1.8,4.6,100,0.00,,,0.00,WeatherDisplay:10.37,2013-01-06 09:36:00,
2013-01-06 03:41:00,45.9,45.9,30.26,WNW,301,1.7,4.6,100,0.00,,,0.00,WeatherDisplay:10.37,2013-01-06 09:41:00,
2013-01-06 03:46:00,45.8,45.8,30.26,WNW,301,0.0,0.0,100,0.00,,,0.00,WeatherDisplay:10.37,2013-01-06 09:46:00,
2013-01-06 03:51:00,45.6,45.6,30.26,WNW,301,0.0,0.0,100,0.00,,,0.00,WeatherDisplay:10.37,2013-01-06 09:51:00,
2013-01-06 03:56:00,45.5,45.5,30.26,WNW,301,0.0,0.0,100,0.00,,,0.00,WeatherDisplay:10.37,2013-01-06 09:56:00,
2013-01-06 04:01:00,45.3,45.3,30.26,WNW,301,0.0,0.0,100,0.00,,,0.00,WeatherDisplay:10.37,2013-01-06 10:01:00,
2013-01-06 04:06:00,45.2,45.2,30.26,WNW,301,0.0,0.0,100,0.00,,,0.00,WeatherDisplay:10.37,2013-01-06 10:06:00,
2013-01-06 04:12:00,45.1,45.1,30.26,NW,326,3.5,3.8,100,0.00,,,0.00,WeatherDisplay:10.37,2013-01-06 10:12:00,
2013-01-06 04:17:00,45.0,45.0,30.26,NW,322,3.7,5.8,100,0.00,,,0.00,WeatherDisplay:10.37,2013-01-06 10:17:00,
2013-01-06 04:22:00,44.9,44.9,30.26,WNW,302,0.0,0.0,100,0.00,,,0.00,WeatherDisplay:10.37,2013-01-06 10:22:00,
2013-01-06 04:27:00,44.8,44.8,30.26,NNW,336,0.0,0.0,100,0.00,,,0.00,WeatherDisplay:10.37,2013-01-06 10:27:00,
2013-01-06 04:32:00,44.7,44.7,30.26,NNW,336,0.0,0.0,100,0.00,,,0.00,WeatherDisplay:10.37,2013-01-06 10:32:00,
2013-01-06 04:37:00,44.6,44.6,30.26,NW,322,2.1,4.6,100,0.00,,,0.00,WeatherDisplay:10.37,2013-01-06 10:37:00,
2013-01-06 04:42:00,44.5,44.5,30.26,WSW,253,0.0,0.0,100,0.00,,,0.00,WeatherDisplay:10.37,2013-01-06 10:42:00,
2013-01-06 04:47:00,44.4,44.4,30.26,WNW,298,1.9,4.6,100,0.00,,,0.00,WeatherDisplay:10.37,2013-01-06 10:47:00,
2013-01-06 04:52:00,44.1,44.1,30.26,NW,316,2.1,4.6,100,0.00,,,0.00,WeatherDisplay:10.37,2013-01-06 10:52:00,
2013-01-06 04:57:00,44.1,44.1,30.26,West,281,2.9,5.8,100,0.00,,,0.00,WeatherDisplay:10.37,2013-01-06 10:57:00,
2013-01-06 04:59:00,44.0,44.0,30.26,WNW,287,0.8,4.6,100,0.00,,,0.00,WeatherDisplay:10.37,2013-01-06 10:59:00,
2013-01-06 05:04:00,43.9,43.9,30.26,WNW,296,3.0,5.8,100,0.00,,,0.00,WeatherDisplay:10.37,2013-01-06 11:04:00,
2013-01-06 05:09:00,43.8,43.8,30.26,NW,305,3.2,6.9,100,0.00,,,0.00,WeatherDisplay:10.37,2013-01-06 11:09:00,
2013-01-06 05:14:00,43.7,43.7,30.26,WNW,301,4.0,6.9,100,0.00,,,0.00,WeatherDisplay:10.37,2013-01-06 11:14:00,
2013-01-06 05:19:00,43.5,43.5,30.26,NW,320,2.3,6.1,100,0.00,,,0.00,WeatherDisplay:10.37,2013-01-06 11:19:00,
2013-01-06 05:24:00,43.6,43.6,30.26,NW,309,4.0,7.0,100,0.00,,,0.00,WeatherDisplay:10.37,2013-01-06 11:24:00,
2013-01-06 05:29:00,43.6,43.6,30.26,NW,318,2.7,7.1,100,0.00,CLR,,0.00,WeatherDisplay:10.37,2013-01-06 11:29:00,
2013-01-06 05:34:00,43.6,43.6,30.26,NNW,332,3.7,6.9,100,0.00,CLR,,0.00,WeatherDisplay:10.37,2013-01-06 11:34:00,
2013-01-06 05:39:00,43.5,43.5,30.26,NW,312,0.9,5.8,100,0.00,,,0.00,WeatherDisplay:10.37,2013-01-06 11:39:00,
2013-01-06 05:44:00,43.5,43.5,30.26,NW,322,2.0,4.6,100,0.00,,,0.00,WeatherDisplay:10.37,2013-01-06 11:44:00,
2013-01-06 05:49:00,43.4,43.4,30.26,NW,311,2.4,4.6,100,0.00,,,0.00,WeatherDisplay:10.37,2013-01-06 11:49:00,
2013-01-06 05:54:00,43.2,43.2,30.27,WNW,299,3.4,5.8,100,0.00,,,0.00,WeatherDisplay:10.37,2013-01-06 11:54:00,
2013-01-06 05:59:00,43.0,43.0,30.27,NW,315,4.5,6.9,100,0.00,,,0.00,WeatherDisplay:10.37,2013-01-06 11:59:00,
2013-01-06 06:04:00,43.1,43.1,30.27,NW,326,2.4,6.9,100,0.00,,,0.00,WeatherDisplay:10.37,2013-01-06 12:04:00,
2013-01-06 06:09:00,43.0,43.0,30.27,WNW,291,3.0,5.8,100,0.00,,,0.00,WeatherDisplay:10.37,2013-01-06 12:09:00,
2013-01-06 06:14:00,42.8,42.8,30.27,NW,311,4.5,7.1,100,0.00,,,0.00,WeatherDisplay:10.37,2013-01-06 12:14:00,
2013-01-06 06:19:00,43.0,43.0,30.28,NNW,335,4.3,8.1,100,0.00,,,0.00,WeatherDisplay:10.37,2013-01-06 12:19:00,
2013-01-06 06:24:00,42.9,42.9,30.27,WNW,299,3.7,6.9,100,0.00,,,0.00,WeatherDisplay:10.37,2013-01-06 12:24:00,
2013-01-06 06:29:00,42.9,42.9,30.28,NW,313,5.3,6.9,100,0.00,,,0.00,WeatherDisplay:10.37,2013-01-06 12:29:00,
2013-01-06 06:34:00,42.9,42.9,30.28,NNW,336,3.2,8.1,100,0.00,,,0.00,WeatherDisplay:10.37,2013-01-06 12:34:00,
2013-01-06 06:39:00,42.9,42.9,30.28,NW,322,4.3,5.3,100,0.00,,,0.00,WeatherDisplay:10.37,2013-01-06 12:39:00,
2013-01-06 06:44:00,42.7,42.7,30.28,WNW,298,3.9,5.8,100,0.00,,,0.00,WeatherDisplay:10.37,2013-01-06 12:44:00,
2013-01-06 06:49:00,42.5,42.5,30.28,NW,305,4.7,10.4,100,0.00,,,0.00,WeatherDisplay:10.37,2013-01-06 12:49:00,
2013-01-06 06:54:00,42.6,42.6,30.28,NNW,328,2.4,5.0,100,0.00,,,0.00,WeatherDisplay:10.37,2013-01-06 12:54:00,
2013-01-06 06:59:00,42.5,42.5,30.29,NW,320,4.8,8.1,100,0.00,,,0.00,WeatherDisplay:10.37,2013-01-06 12:59:00,
2013-01-06 07:04:00,42.2,42.2,30.29,WNW,299,4.3,6.9,100,0.00,,,0.00,WeatherDisplay:10.37,2013-01-06 13:04:00,
2013-01-06 07:09:00,42.4,42.4,30.29,North,360,0.3,5.1,100,0.00,,,0.00,WeatherDisplay:10.37,2013-01-06 13:09:00,
2013-01-06 07:14:00,42.1,42.1,30.30,NW,309,0.0,2.3,100,0.00,,,0.00,WeatherDisplay:10.37,2013-01-06 13:14:00,
2013-01-06 07:19:00,41.9,41.9,30.29,NNW,340,4.5,5.8,100,0.00,,,0.00,WeatherDisplay:10.37,2013-01-06 13:19:00,
2013-01-06 07:24:00,41.8,41.8,30.30,NW,313,3.2,5.8,100,0.00,,,0.00,WeatherDisplay:10.37,2013-01-06 13:24:00,
2013-01-06 07:29:00,41.8,41.8,30.30,NW,313,4.4,6.9,100,0.00,,,0.00,WeatherDisplay:10.37,2013-01-06 13:29:00,
2013-01-06 07:34:00,41.8,41.8,30.30,North,360,3.7,9.2,100,0.00,,,0.00,WeatherDisplay:10.37,2013-01-06 13:34:00,
2013-01-06 07:39:00,41.9,41.9,30.30,North,360,2.7,9.2,100,0.00,,,0.00,WeatherDisplay:10.37,2013-01-06 13:39:00,
2013-01-06 07:44:00,41.9,41.9,30.30,North,352,3.0,6.9,100,0.00,,,0.00,WeatherDisplay:10.37,2013-01-06 13:44:00,
2013-01-06 07:49:00,42.0,42.0,30.30,North,360,5.3,11.1,100,0.00,,,0.00,WeatherDisplay:10.37,2013-01-06 13:49:00,
2013-01-06 07:54:00,42.2,42.2,30.30,NNW,337,4.7,8.1,100,0.00,CLR,,0.00,WeatherDisplay:10.37,2013-01-06 13:54:00,
2013-01-06 07:59:00,42.2,42.2,30.30,NNW,336,2.1,9.2,100,0.00,CLR,,0.00,WeatherDisplay:10.37,2013-01-06 13:59:00,
2013-01-06 08:04:00,42.5,42.5,30.30,North,357,5.2,7.2,100,0.00,CLR,,0.00,WeatherDisplay:10.37,2013-01-06 14:04:00,
2013-01-06 08:09:00,42.6,42.6,30.30,North,360,4.8,6.9,100,0.00,CLR,,0.00,WeatherDisplay:10.37,2013-01-06 14:09:00,
2013-01-06 08:14:00,42.9,42.9,30.30,NNW,346,4.6,9.2,100,0.00,CLR,,0.00,WeatherDisplay:10.37,2013-01-06 14:14:00,
2013-01-06 08:19:00,43.4,43.4,30.31,NW,311,7.8,9.2,100,0.00,CLR,,0.00,WeatherDisplay:10.37,2013-01-06 14:19:00,
2013-01-06 08:24:00,43.7,43.7,30.31,NW,306,7.7,10.4,100,0.00,CLR,,0.00,WeatherDisplay:10.37,2013-01-06 14:24:00,
2013-01-06 08:29:00,44.1,44.1,30.32,NNW,328,6.1,9.2,100,0.00,CLR,,0.00,WeatherDisplay:10.37,2013-01-06 14:29:00,
2013-01-06 08:34:00,44.5,44.5,30.32,NNW,342,3.6,6.9,100,0.00,CLR,,0.00,WeatherDisplay:10.37,2013-01-06 14:34:00,
2013-01-06 08:39:00,44.9,44.9,30.32,NW,316,6.2,9.2,100,0.00,CLR,,0.00,WeatherDisplay:10.37,2013-01-06 14:39:00,
2013-01-06 08:44:00,45.3,45.3,30.32,NW,306,5.3,10.4,100,0.00,CLR,,0.00,WeatherDisplay:10.37,2013-01-06 14:44:00,
2013-01-06 08:49:00,45.6,45.6,30.32,North,360,1.2,6.9,100,0.00,CLR,,0.00,WeatherDisplay:10.37,2013-01-06 14:49:00,
2013-01-06 08:54:00,46.0,46.0,30.33,NW,316,5.7,9.2,100,0.00,CLR,,0.00,WeatherDisplay:10.37,2013-01-06 14:54:00,
2013-01-06 08:59:00,46.3,46.3,30.33,North,350,3.1,9.2,100,0.00,CLR,,0.00,WeatherDisplay:10.37,2013-01-06 14:59:00,
2013-01-06 09:04:00,46.7,46.7,30.32,North,360,0.8,10.4,100,0.00,CLR,,0.00,WeatherDisplay:10.37,2013-01-06 15:04:00,
2013-01-06 09:09:00,46.9,46.9,30.33,North,360,0.0,0.0,100,0.00,CLR,,0.00,WeatherDisplay:10.37,2013-01-06 15:09:00,
2013-01-06 09:14:00,47.2,47.2,30.33,North,356,0.2,3.5,100,0.00,CLR,,0.00,WeatherDisplay:10.37,2013-01-06 15:14:00,
2013-01-06 09:19:00,47.4,47.4,30.33,North,360,0.1,9.2,100,0.00,CLR,,0.00,WeatherDisplay:10.37,2013-01-06 15:19:00,
2013-01-06 09:24:00,47.7,47.7,30.33,North,360,0.0,4.6,100,0.00,CLR,,0.00,WeatherDisplay:10.37,2013-01-06 15:24:00,
2013-01-06 09:29:00,47.8,47.8,30.33,NNW,336,1.1,9.2,100,0.00,CLR,,0.00,WeatherDisplay:10.37,2013-01-06 15:29:00,
2013-01-06 09:34:00,48.3,48.3,30.33,North,360,1.2,6.9,100,0.00,CLR,,0.00,WeatherDisplay:10.37,2013-01-06 15:34:00,
2013-01-06 09:39:00,48.6,48.1,30.33,North,360,0.2,9.7,98,0.00,CLR,,0.00,WeatherDisplay:10.37,2013-01-06 15:39:00,
2013-01-06 09:44:00,48.3,47.2,30.33,North,360,3.1,11.5,96,0.00,CLR,,0.00,WeatherDisplay:10.37,2013-01-06 15:44:00,
2013-01-06 09:49:00,48.6,47.5,30.33,NNW,339,9.4,11.5,96,0.00,CLR,,0.00,WeatherDisplay:10.37,2013-01-06 15:49:00,
2013-01-06 09:54:00,48.7,47.6,30.34,NNW,332,9.5,16.1,96,0.00,CLR,,0.00,WeatherDisplay:10.37,2013-01-06 15:54:00,
2013-01-06 09:59:00,49.0,47.9,30.34,NNW,328,7.4,10.4,96,0.00,CLR,,0.00,WeatherDisplay:10.37,2013-01-06 15:59:00,
2013-01-06 10:04:00,49.4,48.3,30.33,NNW,342,7.5,11.5,96,0.00,CLR,,0.00,WeatherDisplay:10.37,2013-01-06 16:04:00,
2013-01-06 10:09:00,49.8,48.7,30.33,NNW,342,8.1,10.4,96,0.00,CLR,,0.00,WeatherDisplay:10.37,2013-01-06 16:09:00,
2013-01-06 10:14:00,50.0,48.3,30.33,NW,320,10.8,15.0,94,0.00,CLR,,0.00,WeatherDisplay:10.37,2013-01-06 16:14:00,
2013-01-06 10:19:00,50.7,49.3,30.33,NNW,342,4.9,9.2,95,0.00,CLR,,0.00,WeatherDisplay:10.37,2013-01-06 16:19:00,
2013-01-06 10:24:00,51.1,49.1,30.33,NW,325,6.2,9.2,93,0.00,CLR,,0.00,WeatherDisplay:10.37,2013-01-06 16:24:00,
2013-01-06 10:29:00,51.3,48.5,30.34,NW,323,8.8,10.4,90,0.00,CLR,,0.00,WeatherDisplay:10.37,2013-01-06 16:29:00,
2013-01-06 10:34:00,51.6,48.8,30.34,NW,305,8.4,11.5,90,0.00,CLR,,0.00,WeatherDisplay:10.37,2013-01-06 16:34:00,
2013-01-06 10:39:00,51.7,48.6,30.33,NNW,339,6.7,10.4,89,0.00,CLR,,0.00,WeatherDisplay:10.37,2013-01-06 16:39:00,
2013-01-06 10:44:00,51.7,48.3,30.33,NW,308,8.7,13.8,88,0.00,CLR,,0.00,WeatherDisplay:10.37,2013-01-06 16:44:00,
2013-01-06 10:49:00,52.2,48.1,30.32,NW,320,9.8,10.4,86,0.00,CLR,,0.00,WeatherDisplay:10.37,2013-01-06 16:49:00,
2013-01-06 10:54:00,52.4,48.6,30.33,NW,312,7.6,11.5,87,0.00,CLR,,0.00,WeatherDisplay:10.37,2013-01-06 16:54:00,
2013-01-06 10:59:00,52.9,49.1,30.33,NNW,328,7.5,11.4,87,0.00,CLR,,0.00,WeatherDisplay:10.37,2013-01-06 16:59:00,
2013-01-06 11:04:00,53.2,49.1,30.33,NNW,339,6.3,12.7,86,0.00,CLR,,0.00,WeatherDisplay:10.37,2013-01-06 17:04:00,
2013-01-06 11:09:00,53.5,48.8,30.32,NW,313,8.1,11.4,84,0.00,CLR,,0.00,WeatherDisplay:10.37,2013-01-06 17:09:00,
2013-01-06 11:14:00,53.8,49.1,30.32,NNW,332,6.2,9.2,84,0.00,CLR,,0.00,WeatherDisplay:10.37,2013-01-06 17:14:00,
2013-01-06 11:19:00,54.7,49.3,30.32,NW,315,7.4,11.5,82,0.00,CLR,,0.00,WeatherDisplay:10.37,2013-01-06 17:19:00,
2013-01-06 11:24:00,54.9,49.5,30.32,NNW,328,6.4,9.6,82,0.00,CLR,,0.00,WeatherDisplay:10.37,2013-01-06 17:24:00,
2013-01-06 11:29:00,55.0,49.3,30.32,NNW,332,9.2,10.4,81,0.00,CLR,,0.00,WeatherDisplay:10.37,2013-01-06 17:29:00,
2013-01-06 11:34:00,55.3,49.6,30.32,North,360,8.5,11.5,81,0.00,CLR,,0.00,WeatherDisplay:10.37,2013-01-06 17:34:00,
2013-01-06 11:39:00,56.1,49.0,30.32,NNW,329,10.1,13.8,77,0.00,CLR,,0.00,WeatherDisplay:10.37,2013-01-06 17:39:00,
2013-01-06 11:44:00,55.7,48.9,30.32,NNW,333,8.0,11.5,78,0.00,CLR,,0.00,WeatherDisplay:10.37,2013-01-06 17:44:00,
2013-01-06 11:49:00,56.0,49.6,30.31,NW,311,5.5,9.2,79,0.00,CLR,,0.00,WeatherDisplay:10.37,2013-01-06 17:49:00,
2013-01-06 11:54:00,56.2,48.7,30.31,NNW,342,9.6,11.5,76,0.00,CLR,,0.00,WeatherDisplay:10.37,2013-01-06 17:54:00,
2013-01-06 11:59:00,56.6,48.8,30.31,NNW,330,8.2,9.4,75,0.00,CLR,,0.00,WeatherDisplay:10.37,2013-01-06 17:59:00,
2013-01-06 12:04:00,57.0,49.2,30.31,North,10,7.4,12.7,75,0.00,CLR,,0.00,WeatherDisplay:10.37,2013-01-06 18:04:00,
2013-01-06 12:09:00,56.9,48.0,30.30,NNW,343,10.1,13.8,72,0.00,CLR,,0.00,WeatherDisplay:10.37,2013-01-06 18:09:00,
2013-01-06 12:14:00,56.9,48.7,30.30,North,3,9.6,15.0,74,0.00,CLR,,0.00,WeatherDisplay:10.37,2013-01-06 18:14:00,
2013-01-06 12:19:00,56.8,48.2,30.30,North,350,10.4,13.8,73,0.00,CLR,,0.00,WeatherDisplay:10.37,2013-01-06 18:19:00,
2013-01-06 12:24:00,56.9,48.7,30.30,NNW,343,8.9,12.7,74,0.00,CLR,,0.00,WeatherDisplay:10.37,2013-01-06 18:24:00,
2013-01-06 12:29:00,57.4,48.4,30.29,NNW,337,10.1,15.0,72,0.00,CLR,,0.00,WeatherDisplay:10.37,2013-01-06 18:29:00,
2013-01-06 12:34:00,57.4,48.4,30.29,ENE,73,7.3,13.8,72,0.00,CLR,,0.00,WeatherDisplay:10.37,2013-01-06 18:34:00,
2013-01-06 12:39:00,57.9,48.2,30.29,NNW,342,10.5,18.4,70,0.00,CLR,,0.00,WeatherDisplay:10.37,2013-01-06 18:39:00,
2013-01-06 12:44:00,58.3,48.9,30.28,NNE,20,6.5,10.4,71,0.00,CLR,,0.00,WeatherDisplay:10.37,2013-01-06 18:44:00,
2013-01-06 12:49:00,58.5,48.4,30.27,NNE,23,9.6,17.3,69,0.00,CLR,,0.00,WeatherDisplay:10.37,2013-01-06 18:49:00,
2013-01-06 12:54:00,58.7,48.9,30.26,NW,318,6.8,9.8,70,0.00,CLR,,0.00,WeatherDisplay:10.37,2013-01-06 18:54:00,
2013-01-06 12:59:00,58.8,48.6,30.26,NW,326,7.8,11.5,69,0.00,CLR,,0.00,WeatherDisplay:10.37,2013-01-06 18:59:00,
2013-01-06 13:04:00,58.8,48.3,30.26,NNW,332,9.3,12.0,68,0.00,CLR,,0.00,WeatherDisplay:10.37,2013-01-06 19:04:00,
2013-01-06 13:09:00,59.3,48.7,30.26,North,3,6.3,13.7,68,0.00,CLR,,0.00,WeatherDisplay:10.37,2013-01-06 19:09:00,
2013-01-06 13:14:00,59.3,47.5,30.26,NW,326,10.4,17.3,65,0.00,CLR,,0.00,WeatherDisplay:10.37,2013-01-06 19:14:00,
2013-01-06 13:19:00,59.1,46.9,30.26,North,7,8.5,11.5,64,0.00,CLR,,0.00,WeatherDisplay:10.37,2013-01-06 19:19:00,
2013-01-06 13:24:00,59.0,47.2,30.25,NNW,329,8.2,13.8,65,0.00,CLR,,0.00,WeatherDisplay:10.37,2013-01-06 19:24:00,
2013-01-06 13:29:00,59.1,46.5,30.25,NNE,32,10.1,16.1,63,0.00,CLR,,0.00,WeatherDisplay:10.37,2013-01-06 19:29:00,
2013-01-06 13:34:00,59.4,46.4,30.25,North,360,9.6,16.1,62,0.00,CLR,,0.00,WeatherDisplay:10.37,2013-01-06 19:34:00,
2013-01-06 13:39:00,59.9,47.3,30.25,NE,35,7.2,15.0,63,0.00,CLR,,0.00,WeatherDisplay:10.37,2013-01-06 19:39:00,
2013-01-06 13:44:00,59.6,46.6,30.25,NNE,17,7.7,12.7,62,0.00,CLR,,0.00,WeatherDisplay:10.37,2013-01-06 19:44:00,
2013-01-06 13:49:00,60.0,47.4,30.25,NW,322,5.9,10.4,63,0.00,CLR,,0.00,WeatherDisplay:10.37,2013-01-06 19:49:00,
2013-01-06 13:54:00,60.1,47.5,30.25,NNW,344,6.5,11.5,63,0.00,CLR,,0.00,WeatherDisplay:10.37,2013-01-06 19:54:00,
2013-01-06 13:59:00,60.2,47.6,30.25,NW,316,8.5,12.7,63,0.00,CLR,,0.00,WeatherDisplay:10.37,2013-01-06 19:59:00,
2013-01-06 14:04:00,60.1,47.5,30.25,North,360,5.1,9.2,63,0.00,CLR,,0.00,WeatherDisplay:10.37,2013-01-06 20:04:00,
2013-01-06 14:09:00,59.2,48.6,30.25,NE,44,5.9,12.7,68,0.00,CLR,,0.00,WeatherDisplay:10.37,2013-01-06 20:09:00,
2013-01-06 14:13:00,59.2,48.2,30.25,North,3,8.3,12.7,67,0.00,CLR,,0.00,WeatherDisplay:10.37,2013-01-06 20:13:00,
2013-01-06 14:18:00,58.5,47.6,30.25,ENE,72,9.7,12.7,67,0.00,CLR,,0.00,WeatherDisplay:10.37,2013-01-06 20:18:00,
2013-01-06 14:23:00,58.9,48.7,30.25,East,88,7.6,12.7,69,0.00,CLR,,0.00,WeatherDisplay:10.37,2013-01-06 20:23:00,
2013-01-06 14:28:00,58.6,48.1,30.25,East,80,9.4,16.1,68,0.00,CLR,,0.00,WeatherDisplay:10.37,2013-01-06 20:28:00,
2013-01-06 14:33:00,58.7,48.2,30.25,ENE,61,7.3,11.5,68,0.00,CLR,,0.00,WeatherDisplay:10.37,2013-01-06 20:33:00,
2013-01-06 14:38:00,58.9,48.4,30.25,NNE,27,7.6,11.5,68,0.00,CLR,,0.00,WeatherDisplay:10.37,2013-01-06 20:38:00,
2013-01-06 14:43:00,58.9,47.6,30.25,East,99,10.7,12.7,66,0.00,CLR,,0.00,WeatherDisplay:10.37,2013-01-06 20:43:00,
2013-01-06 14:48:00,58.6,48.5,30.25,East,89,6.5,9.2,69,0.00,CLR,,0.00,WeatherDisplay:10.37,2013-01-06 20:48:00,
2013-01-06 14:53:00,58.5,48.4,30.24,ENE,73,9.3,12.7,69,0.00,CLR,,0.00,WeatherDisplay:10.37,2013-01-06 20:53:00,
2013-01-06 14:58:00,58.7,48.2,30.25,NE,54,8.8,12.7,68,0.00,CLR,,0.00,WeatherDisplay:10.37,2013-01-06 20:58:00,
2013-01-06 15:03:00,58.8,47.9,30.25,East,80,8.9,11.5,67,0.00,CLR,,0.00,WeatherDisplay:10.37,2013-01-06 21:03:00,
2013-01-06 15:08:00,59.1,47.7,30.25,ESE,106,7.9,12.1,66,0.00,CLR,,0.00,WeatherDisplay:10.37,2013-01-06 21:08:00,
2013-01-06 15:13:00,59.2,47.8,30.25,ENE,69,8.3,12.7,66,0.00,CLR,,0.00,WeatherDisplay:10.37,2013-01-06 21:13:00,
2013-01-06 15:18:00,59.0,47.7,30.25,NE,47,9.5,12.7,66,0.00,CLR,,0.00,WeatherDisplay:10.37,2013-01-06 21:18:00,
2013-01-06 15:23:00,59.0,48.1,30.25,NE,47,5.4,11.5,67,0.00,CLR,,0.00,WeatherDisplay:10.37,2013-01-06 21:23:00,
2013-01-06 15:28:00,58.7,48.2,30.25,East,90,8.6,12.7,68,0.00,CLR,,0.00,WeatherDisplay:10.37,2013-01-06 21:28:00,
2013-01-06 15:33:00,58.8,48.6,30.25,ENE,66,8.2,11.5,69,0.00,CLR,,0.00,WeatherDisplay:10.37,2013-01-06 21:33:00,
2013-01-06 15:38:00,58.5,49.1,30.25,NE,44,7.1,10.0,71,0.00,CLR,,0.00,WeatherDisplay:10.37,2013-01-06 21:38:00,
2013-01-06 15:43:00,58.7,48.9,30.25,ENE,61,7.2,10.4,70,0.00,CLR,,0.00,WeatherDisplay:10.37,2013-01-06 21:43:00,
2013-01-06 15:48:00,58.6,48.8,30.26,NNE,28,6.6,9.2,70,0.00,CLR,,0.00,WeatherDisplay:10.37,2013-01-06 21:48:00,
2013-01-06 15:53:00,58.7,49.3,30.26,NE,41,6.6,9.2,71,0.00,CLR,,0.00,WeatherDisplay:10.37,2013-01-06 21:53:00,
2013-01-06 15:58:00,58.8,48.3,30.26,ENE,59,6.5,10.4,68,0.00,CLR,,0.00,WeatherDisplay:10.37,2013-01-06 21:58:00,
2013-01-06 16:03:00,58.9,48.4,30.26,NE,38,8.1,10.4,68,0.00,CLR,,0.00,WeatherDisplay:10.37,2013-01-06 22:03:00,
2013-01-06 16:08:00,58.4,48.7,30.26,ENE,65,9.7,11.5,70,0.00,CLR,,0.00,WeatherDisplay:10.37,2013-01-06 22:08:00,
2013-01-06 16:13:00,58.3,48.2,30.26,ENE,72,7.1,11.5,69,0.00,CLR,,0.00,WeatherDisplay:10.37,2013-01-06 22:13:00,
2013-01-06 16:18:00,58.5,48.4,30.26,ENE,59,5.1,9.2,69,0.00,CLR,,0.00,WeatherDisplay:10.37,2013-01-06 22:18:00,
2013-01-06 16:23:00,58.6,48.5,30.26,North,356,9.5,12.7,69,0.00,CLR,,0.00,WeatherDisplay:10.37,2013-01-06 22:23:00,
2013-01-06 16:28:00,59.0,48.4,30.25,NNE,16,3.6,5.8,68,0.00,CLR,,0.00,WeatherDisplay:10.37,2013-01-06 22:28:00,
2013-01-06 16:33:00,59.0,48.4,30.25,NE,52,5.3,7.6,68,0.00,CLR,,0.00,WeatherDisplay:10.37,2013-01-06 22:33:00,
2013-01-06 16:38:00,58.6,47.7,30.26,NE,48,6.2,11.5,67,0.00,CLR,,0.00,WeatherDisplay:10.37,2013-01-06 22:38:00,
2013-01-06 16:43:00,58.4,47.9,30.25,East,88,5.6,8.1,68,0.00,CLR,,0.00,WeatherDisplay:10.37,2013-01-06 22:43:00,
2013-01-06 16:48:00,58.1,49.5,30.25,ENE,78,5.4,9.2,73,0.00,CLR,,0.00,WeatherDisplay:10.37,2013-01-06 22:48:00,
2013-01-06 16:53:00,57.1,50.0,30.25,ENE,64,7.7,9.4,77,0.00,CLR,,0.00,WeatherDisplay:10.37,2013-01-06 22:53:00,
2013-01-06 16:58:00,56.6,50.2,30.25,ENE,69,7.2,9.2,79,0.00,CLR,,0.00,WeatherDisplay:10.37,2013-01-06 22:58:00,
2013-01-06 17:03:00,56.4,50.0,30.25,East,96,7.6,10.4,79,0.00,CLR,,0.00,WeatherDisplay:10.37,2013-01-06 23:03:00,
2013-01-06 17:08:00,56.6,50.5,30.25,East,92,6.2,8.3,80,0.00,CLR,,0.00,WeatherDisplay:10.37,2013-01-06 23:08:00,
2013-01-06 17:13:00,56.4,50.3,30.25,ENE,64,7.9,9.8,80,0.00,CLR,,0.00,WeatherDisplay:10.37,2013-01-06 23:13:00,
2013-01-06 17:18:00,56.2,50.1,30.25,East,100,7.0,9.2,80,0.00,CLR,,0.00,WeatherDisplay:10.37,2013-01-06 23:18:00,
2013-01-06 17:23:00,56.0,49.9,30.25,East,82,6.3,8.1,80,0.00,CLR,,0.00,WeatherDisplay:10.37,2013-01-06 23:23:00,
2013-01-06 17:28:00,56.0,50.3,30.25,NE,44,5.8,9.2,81,0.00,CLR,,0.00,WeatherDisplay:10.37,2013-01-06 23:28:00,
2013-01-06 17:33:00,55.6,50.2,30.25,ENE,62,7.8,9.2,82,0.00,CLR,,0.00,WeatherDisplay:10.37,2013-01-06 23:33:00,
2013-01-06 17:38:00,55.5,50.4,30.25,ENE,71,5.0,6.9,83,0.00,CLR,,0.00,WeatherDisplay:10.37,2013-01-06 23:38:00,
2013-01-06 17:42:00,55.5,50.7,30.25,ENE,73,6.2,9.2,84,0.00,CLR,,0.00,WeatherDisplay:10.37,2013-01-06 23:42:00,
2013-01-06 17:47:00,55.2,50.8,30.25,ENE,59,4.7,6.3,85,0.00,CLR,,0.00,WeatherDisplay:10.37,2013-01-06 23:47:00,
2013-01-06 17:52:00,55.2,50.8,30.26,East,95,5.1,8.1,85,0.00,CLR,,0.00,WeatherDisplay:10.37,2013-01-06 23:52:00,
2013-01-06 17:57:00,55.0,50.9,30.26,North,7,4.2,6.9,86,0.00,CLR,,0.00,WeatherDisplay:10.37,2013-01-06 23:57:00,
2013-01-06 18:02:00,54.9,51.1,30.26,ENE,76,4.7,6.9,87,0.00,CLR,,0.00,WeatherDisplay:10.37,2013-01-07 00:02:00,
2013-01-06 18:07:00,54.8,51.0,30.26,NE,49,2.8,3.5,87,0.00,CLR,,0.00,WeatherDisplay:10.37,2013-01-07 00:07:00,
2013-01-06 18:12:00,54.5,51.0,30.26,NNE,28,0.0,0.0,88,0.00,CLR,,0.00,WeatherDisplay:10.37,2013-01-07 00:12:00,
2013-01-06 18:17:00,54.5,51.3,30.26,NNE,28,0.0,0.0,89,0.00,CLR,,0.00,WeatherDisplay:10.37,2013-01-07 00:17:00,
2013-01-06 18:22:00,54.3,51.1,30.26,NNE,28,0.0,0.0,89,0.00,CLR,,0.00,WeatherDisplay:10.37,2013-01-07 00:22:00,
2013-01-06 18:27:00,54.1,51.2,30.26,NNE,28,0.0,0.0,90,0.00,CLR,,0.00,WeatherDisplay:10.37,2013-01-07 00:27:00,
2013-01-06 18:32:00,54.1,51.2,30.26,NNE,28,0.0,0.0,90,0.00,CLR,,0.00,WeatherDisplay:10.37,2013-01-07 00:32:00,
2013-01-06 18:37:00,54.0,51.1,30.27,NNE,28,0.0,0.0,90,0.00,CLR,,0.00,WeatherDisplay:10.37,2013-01-07 00:37:00,
2013-01-06 18:42:00,53.5,50.9,30.27,NNE,28,0.0,0.0,91,0.00,CLR,,0.00,WeatherDisplay:10.37,2013-01-07 00:42:00,
2013-01-06 18:47:00,53.3,51.0,30.27,NNE,28,0.0,0.0,92,0.00,CLR,,0.00,WeatherDisplay:10.37,2013-01-07 00:47:00,
2013-01-06 18:52:00,53.1,50.8,30.26,NNE,28,0.0,0.0,92,0.00,CLR,,0.00,WeatherDisplay:10.37,2013-01-07 00:52:00,
2013-01-06 18:57:00,52.8,50.8,30.27,NNE,28,0.0,0.0,93,0.00,CLR,,0.00,WeatherDisplay:10.37,2013-01-07 00:57:00,
2013-01-06 19:02:00,52.7,51.0,30.27,NNE,28,0.0,0.0,94,0.00,CLR,,0.00,WeatherDisplay:10.37,2013-01-07 01:02:00,
2013-01-06 19:07:00,52.3,50.6,30.27,NNE,28,0.0,0.0,94,0.00,CLR,,0.00,WeatherDisplay:10.37,2013-01-07 01:07:00,
2013-01-06 19:12:00,52.1,50.4,30.27,NNE,28,0.0,0.0,94,0.00,CLR,,0.00,WeatherDisplay:10.37,2013-01-07 01:12:00,
2013-01-06 19:17:00,51.8,50.1,30.28,NNE,28,0.0,0.0,94,0.00,CLR,,0.00,WeatherDisplay:10.37,2013-01-07 01:17:00,
2013-01-06 19:22:00,51.3,49.9,30.28,NNE,28,0.0,0.0,95,0.00,CLR,,0.00,WeatherDisplay:10.37,2013-01-07 01:22:00,
2013-01-06 19:27:00,50.9,49.5,30.28,NNE,28,0.0,0.0,95,0.00,CLR,,0.00,WeatherDisplay:10.37,2013-01-07 01:27:00,
2013-01-06 19:32:00,50.6,49.5,30.28,NNE,28,0.0,0.0,96,0.00,CLR,,0.00,WeatherDisplay:10.37,2013-01-07 01:32:00,
2013-01-06 19:37:00,50.4,49.3,30.28,NNE,28,0.0,0.0,96,0.00,CLR,,0.00,WeatherDisplay:10.37,2013-01-07 01:37:00,
2013-01-06 19:42:00,49.9,48.8,30.28,NNE,28,0.0,0.0,96,0.00,CLR,,0.00,WeatherDisplay:10.37,2013-01-07 01:42:00,
2013-01-06 19:47:00,49.6,48.5,30.28,NNE,28,0.0,0.0,96,0.00,CLR,,0.00,WeatherDisplay:10.37,2013-01-07 01:47:00,
2013-01-06 19:52:00,49.4,48.6,30.28,NNE,28,0.0,0.0,97,0.00,CLR,,0.00,WeatherDisplay:10.37,2013-01-07 01:52:00,
2013-01-06 19:57:00,49.2,48.4,30.28,NNE,28,0.0,0.0,97,0.00,CLR,,0.00,WeatherDisplay:10.37,2013-01-07 01:57:00,
2013-01-06 20:02:00,49.1,48.3,30.28,NNE,28,0.0,0.0,97,0.00,CLR,,0.00,WeatherDisplay:10.37,2013-01-07 02:02:00,
2013-01-06 20:07:00,49.1,48.3,30.28,NNE,28,0.0,0.0,97,0.00,CLR,,0.00,WeatherDisplay:10.37,2013-01-07 02:07:00,
2013-01-06 20:12:00,48.7,47.9,30.29,NNE,28,0.0,0.0,97,0.00,CLR,,0.00,WeatherDisplay:10.37,2013-01-07 02:12:00,
2013-01-06 20:17:00,48.5,48.0,30.29,NNE,28,0.0,0.0,98,0.00,CLR,,0.00,WeatherDisplay:10.37,2013-01-07 02:17:00,
2013-01-06 20:22:00,48.3,47.8,30.29,NNE,28,0.0,0.0,98,0.00,CLR,,0.00,WeatherDisplay:10.37,2013-01-07 02:22:00,
2013-01-06 20:27:00,47.9,47.4,30.29,NNE,28,0.0,0.0,98,0.00,CLR,,0.00,WeatherDisplay:10.37,2013-01-07 02:27:00,
2013-01-06 20:32:00,47.6,47.1,30.29,NNE,28,0.0,0.0,98,0.00,CLR,,0.00,WeatherDisplay:10.37,2013-01-07 02:32:00,
2013-01-06 20:37:00,47.2,46.7,30.29,NNE,28,0.0,0.0,98,0.00,CLR,,0.00,WeatherDisplay:10.37,2013-01-07 02:37:00,
2013-01-06 20:42:00,47.1,46.6,30.30,NNE,28,0.0,0.0,98,0.00,CLR,,0.00,WeatherDisplay:10.37,2013-01-07 02:42:00,
2013-01-06 20:47:00,47.0,46.5,30.30,NNE,28,0.0,0.0,98,0.00,CLR,,0.00,WeatherDisplay:10.37,2013-01-07 02:47:00,
2013-01-06 20:52:00,46.7,46.2,30.30,NNE,28,0.0,0.0,98,0.00,CLR,,0.00,WeatherDisplay:10.37,2013-01-07 02:52:00,
2013-01-06 20:57:00,46.6,46.3,30.30,NNE,28,0.0,0.0,99,0.00,CLR,,0.00,WeatherDisplay:10.37,2013-01-07 02:57:00,
2013-01-06 21:02:00,46.4,46.1,30.30,NNE,28,0.0,0.0,99,0.00,,,0.00,WeatherDisplay:10.37,2013-01-07 03:02:00,
2013-01-06 21:07:00,46.2,45.9,30.30,NNE,28,0.0,0.0,99,0.00,,,0.00,WeatherDisplay:10.37,2013-01-07 03:07:00,
2013-01-06 21:12:00,46.1,45.8,30.30,NNE,28,0.0,0.0,99,0.00,,,0.00,WeatherDisplay:10.37,2013-01-07 03:12:00,
2013-01-06 21:17:00,45.9,45.6,30.30,NNE,28,0.0,0.0,99,0.00,,,0.00,WeatherDisplay:10.37,2013-01-07 03:17:00,
2013-01-06 21:22:00,45.7,45.7,30.30,NNE,28,0.0,0.0,100,0.00,,,0.00,WeatherDisplay:10.37,2013-01-07 03:22:00,
2013-01-06 21:27:00,45.7,45.7,30.30,North,359,0.0,0.0,100,0.00,,,0.00,WeatherDisplay:10.37,2013-01-07 03:27:00,
2013-01-06 21:32:00,45.6,45.6,30.29,North,359,0.0,0.0,100,0.00,,,0.00,WeatherDisplay:10.37,2013-01-07 03:32:00,
2013-01-06 21:37:00,45.5,45.5,30.30,North,359,0.0,0.0,100,0.00,,,0.00,WeatherDisplay:10.37,2013-01-07 03:37:00,
2013-01-06 21:42:00,45.5,45.5,30.30,NNE,20,0.0,0.0,100,0.00,,,0.00,WeatherDisplay:10.37,2013-01-07 03:42:00,
2013-01-06 21:47:00,45.6,45.6,30.30,NNE,20,0.0,0.0,100,0.00,,,0.00,WeatherDisplay:10.37,2013-01-07 03:47:00,
2013-01-06 21:52:00,45.5,45.5,30.30,NNE,20,0.0,0.0,100,0.00,,,0.00,WeatherDisplay:10.37,2013-01-07 03:52:00,
2013-01-06 21:57:00,45.2,45.2,30.29,North,8,2.6,3.5,100,0.00,,,0.00,WeatherDisplay:10.37,2013-01-07 03:57:00,
2013-01-06 22:02:00,45.3,45.3,30.30,NNW,347,0.0,0.0,100,0.00,,,0.00,WeatherDisplay:10.37,2013-01-07 04:02:00,
2013-01-06 22:07:00,45.2,45.2,30.30,NNW,347,0.0,0.0,100,0.00,,,0.00,WeatherDisplay:10.37,2013-01-07 04:07:00,
2013-01-06 22:12:00,45.1,45.1,30.30,NNW,347,0.0,0.0,100,0.00,,,0.00,WeatherDisplay:10.37,2013-01-07 04:12:00,
2013-01-06 22:17:00,45.2,45.2,30.30,North,0,0.3,2.3,100,0.00,,,0.00,WeatherDisplay:10.37,2013-01-07 04:17:00,
2013-01-06 22:22:00,45.2,44.9,30.30,North,0,0.0,0.0,99,0.00,,,0.00,WeatherDisplay:10.37,2013-01-07 04:22:00,
2013-01-06 22:27:00,45.1,44.8,30.30,North,0,0.0,0.0,99,0.00,,,0.00,WeatherDisplay:10.37,2013-01-07 04:27:00,
2013-01-06 22:32:00,44.9,44.6,30.30,North,0,0.0,0.0,99,0.00,,,0.00,WeatherDisplay:10.37,2013-01-07 04:32:00,
2013-01-06 22:37:00,44.8,44.5,30.30,North,0,0.0,0.0,99,0.00,,,0.00,WeatherDisplay:10.37,2013-01-07 04:37:00,
2013-01-06 22:42:00,44.7,44.4,30.30,North,0,0.0,0.0,99,0.00,,,0.00,WeatherDisplay:10.37,2013-01-07 04:42:00,
2013-01-06 22:47:00,44.5,44.2,30.30,North,0,0.0,0.0,99,0.00,,,0.00,WeatherDisplay:10.37,2013-01-07 04:47:00,
2013-01-06 22:52:00,44.4,44.1,30.30,North,0,0.0,0.0,99,0.00,,,0.00,WeatherDisplay:10.37,2013-01-07 04:52:00,
2013-01-06 22:57:00,44.4,44.1,30.29,North,0,0.0,0.0,99,0.00,,,0.00,WeatherDisplay:10.37,2013-01-07 04:57:00,
2013-01-06 23:00:00,44.3,44.0,30.30,North,0,0.0,0.0,99,0.00,,,0.00,WeatherDisplay:10.37,2013-01-07 05:00:00,
2013-01-06 23:05:00,44.3,44.0,30.30,North,0,0.0,0.0,99,0.00,,,0.00,WeatherDisplay:10.37,2013-01-07 05:05:00,
2013-01-06 23:10:00,44.3,44.0,30.30,North,0,0.0,0.0,99,0.00,,,0.00,WeatherDisplay:10.37,2013-01-07 05:10:00,
2013-01-06 23:15:00,44.1,43.6,30.29,North,0,0.0,0.0,98,0.00,CLR,,0.00,WeatherDisplay:10.37,2013-01-07 05:15:00,
2013-01-06 23:20:00,43.8,43.3,30.29,North,0,0.0,0.0,98,0.00,CLR,,0.00,WeatherDisplay:10.37,2013-01-07 05:20:00,
2013-01-06 23:25:00,43.6,43.1,30.29,North,0,0.0,0.0,98,0.00,CLR,,0.00,WeatherDisplay:10.37,2013-01-07 05:25:00,
2013-01-06 23:30:00,43.5,43.0,30.29,North,0,0.1,1.2,98,0.00,CLR,,0.00,WeatherDisplay:10.37,2013-01-07 05:30:00,
2013-01-06 23:35:00,43.5,43.0,30.29,North,0,0.0,0.0,98,0.00,CLR,,0.00,WeatherDisplay:10.37,2013-01-07 05:35:00,
2013-01-06 23:40:00,43.5,43.0,30.29,North,0,0.0,0.0,98,0.00,CLR,,0.00,WeatherDisplay:10.37,2013-01-07 05:40:00,
2013-01-06 23:45:00,43.6,43.1,30.29,North,0,0.0,0.0,98,0.00,CLR,,0.00,WeatherDisplay:10.37,2013-01-07 05:45:00,
2013-01-06 23:50:00,43.7,43.2,30.29,North,0,0.0,0.0,98,0.00,CLR,,0.00,WeatherDisplay:10.37,2013-01-07 05:50:00,
2013-01-06 23:55:00,44.0,43.5,30.29,North,360,3.6,4.7,98,0.00,CLR,,0.00,WeatherDisplay:10.37,2013-01-07 05:55:00,